Time;durP1;ratioP1;P1;durP2;ratioP2;P2;SDS_P1;SDS_P2;PMS_P1;PMS_P2;Temp;Humidity;BMP_temperature;BMP_pressure;BME280_temperature;BME280_humidity;BME280_pressure;Samples;Min_cycle;Max_cycle;Signal;HPM_P1;HPM_P2
2023/07/16 00:02:06;;;;;;;;;;;21.40;94.70;;;;;;5144901;27;20442;-79
2023/07/16 00:04:32;;;;;;;;;;;21.60;95.10;;;;;;5144268;27;19911;-80
2023/07/16 00:06:59;;;;;;;;;;;21.70;94.20;;;;;;5146218;27;20713;-79
2023/07/16 00:09:25;;;;;;;;;;;21.70;94.10;;;;;;5142528;27;19987;-79
2023/07/16 00:11:50;;;;;;;;;;;21.60;94.10;;;;;;5138915;27;20000;-79
2023/07/16 00:14:17;;;;;;;;;;;21.80;93.40;;;;;;5143122;27;19936;-79
2023/07/16 00:16:42;;;;;;;;;;;21.60;93.90;;;;;;5141047;27;19911;-79
2023/07/16 00:19:10;;;;;;;;;;;21.70;94.10;;;;;;5138763;27;20788;-79
2023/07/16 00:21:35;;;;;;;;;;;21.60;94.00;;;;;;5144869;27;19926;-79
2023/07/16 00:24:01;;;;;;;;;;;21.60;93.10;;;;;;5138029;27;19907;-79
2023/07/16 00:26:26;;;;;;;;;;;21.50;93.00;;;;;;5141841;27;19938;-78
2023/07/16 00:28:52;;;;;;;;;;;21.50;93.60;;;;;;5142848;27;19908;-76
2023/07/16 00:31:17;;;;;;;;;;;21.60;94.60;;;;;;5134587;27;20363;-79
2023/07/16 00:33:43;;;;;;;;;;;21.50;94.00;;;;;;5143219;27;19960;-80
2023/07/16 00:36:08;;;;;;;;;;;21.60;93.60;;;;;;5144354;27;20278;-80
2023/07/16 00:38:33;;;;;;;;;;;21.70;93.60;;;;;;5138791;27;19907;-79
2023/07/16 00:41:00;;;;;;;;;;;21.60;93.00;;;;;;5137703;27;19971;-77
2023/07/16 00:43:25;;;;;;;;;;;21.50;93.00;;;;;;5140946;27;20405;-78
2023/07/16 00:45:51;;;;;;;;;;;21.40;93.90;;;;;;5140329;27;19938;-77
2023/07/16 00:48:16;;;;;;;;;;;21.40;93.20;;;;;;5138969;27;19998;-79
2023/07/16 00:50:42;;;;;;;;;;;21.50;93.10;;;;;;5147853;27;19906;-76
2023/07/16 00:53:08;;;;;;;;;;;21.40;93.00;;;;;;5142654;27;20018;-77
2023/07/16 00:55:35;;;;;;;;;;;21.30;93.00;;;;;;5142951;27;19906;-78
2023/07/16 00:58:02;;;;;;;;;;;21.20;92.70;;;;;;5140456;27;19930;-80
2023/07/16 01:00:28;;;;;;;;;;;21.40;92.90;;;;;;5138349;27;19907;-79
2023/07/16 01:02:54;;;;;;;;;;;21.30;92.90;;;;;;5135798;27;19913;-79
2023/07/16 01:05:20;;;;;;;;;;;21.40;93.00;;;;;;5144470;27;19934;-80
2023/07/16 01:07:53;;;;;;;;;;;21.50;92.80;;;;;;5136529;27;19903;-79
2023/07/16 01:10:18;;;;;;;;;;;21.30;93.00;;;;;;5136806;27;19908;-80
2023/07/16 01:12:44;;;;;;;;;;;21.40;93.10;;;;;;5140214;27;19929;-80
2023/07/16 01:15:10;;;;;;;;;;;21.50;93.40;;;;;;5141817;27;19903;-77
2023/07/16 01:17:35;;;;;;;;;;;21.40;93.30;;;;;;5143026;27;20277;-79
2023/07/16 01:20:01;;;;;;;;;;;21.10;94.10;;;;;;5142147;27;19959;-79
2023/07/16 01:22:45;;;;;;;;;;;21.10;94.00;;;;;;5143584;27;20366;-79
2023/07/16 01:25:29;;;;;;;;;;;21.20;93.90;;;;;;5136376;27;19903;-79
2023/07/16 01:28:03;;;;;;;;;;;21.30;93.20;;;;;;5141850;27;19913;-77
2023/07/16 01:30:29;;;;;;;;;;;21.00;93.80;;;;;;5136560;27;19993;-78
2023/07/16 01:32:55;;;;;;;;;;;21.20;94.00;;;;;;5139175;27;20447;-79
2023/07/16 01:35:21;;;;;;;;;;;21.20;93.40;;;;;;5146463;27;19907;-79
2023/07/16 01:37:46;;;;;;;;;;;21.20;93.60;;;;;;5138064;27;20267;-80
2023/07/16 01:40:12;;;;;;;;;;;21.20;93.80;;;;;;5141919;27;19907;-78
2023/07/16 01:42:38;;;;;;;;;;;21.20;93.30;;;;;;5146599;27;19911;-79
2023/07/16 01:45:04;;;;;;;;;;;21.20;93.30;;;;;;5135269;27;19914;-78
2023/07/16 01:47:40;;;;;;;;;;;21.00;93.00;;;;;;5142584;27;19923;-78
2023/07/16 01:50:06;;;;;;;;;;;21.00;93.90;;;;;;5141043;27;20044;-77
2023/07/16 01:52:31;;;;;;;;;;;20.90;94.10;;;;;;5137831;27;20001;-79
2023/07/16 01:54:57;;;;;;;;;;;21.10;93.70;;;;;;5141538;27;19911;-78
2023/07/16 01:57:22;;;;;;;;;;;21.10;93.40;;;;;;5140819;27;19914;-78
2023/07/16 01:59:48;;;;;;;;;;;21.20;93.40;;;;;;5138993;27;19903;-79
2023/07/16 02:02:13;;;;;;;;;;;20.90;93.80;;;;;;5144691;27;20327;-79
2023/07/16 02:04:39;;;;;;;;;;;21.00;93.90;;;;;;5141508;27;19967;-79
2023/07/16 02:07:04;;;;;;;;;;;21.10;93.90;;;;;;5142754;27;19908;-78
2023/07/16 02:09:30;;;;;;;;;;;20.90;93.80;;;;;;5142286;27;20292;-79
2023/07/16 02:11:55;;;;;;;;;;;20.60;94.90;;;;;;5140502;27;19907;-79
2023/07/16 02:14:21;;;;;;;;;;;20.60;94.90;;;;;;5134706;27;19915;-79
2023/07/16 02:16:46;;;;;;;;;;;20.60;94.90;;;;;;5141747;27;19903;-79
2023/07/16 02:19:12;;;;;;;;;;;20.60;95.20;;;;;;5140414;27;20345;-77
2023/07/16 02:21:37;;;;;;;;;;;20.60;95.10;;;;;;5132355;27;19922;-76
2023/07/16 02:24:03;;;;;;;;;;;20.70;95.30;;;;;;5141286;27;19914;-79
2023/07/16 02:26:28;;;;;;;;;;;20.50;95.50;;;;;;5141261;27;19903;-78
2023/07/16 02:28:54;;;;;;;;;;;20.60;95.80;;;;;;5132608;27;20313;-79
2023/07/16 02:31:19;;;;;;;;;;;20.60;95.40;;;;;;5140270;27;19960;-79
2023/07/16 02:33:44;;;;;;;;;;;20.70;95.00;;;;;;5140431;27;20437;-79
2023/07/16 02:36:10;;;;;;;;;;;20.50;94.70;;;;;;5141051;27;19907;-77
2023/07/16 02:38:36;;;;;;;;;;;20.60;94.40;;;;;;5135870;27;19911;-78
2023/07/16 02:41:01;;;;;;;;;;;20.40;94.30;;;;;;5146017;27;19926;-78
2023/07/16 02:43:26;;;;;;;;;;;20.50;94.30;;;;;;5137229;27;19910;-79
2023/07/16 02:45:52;;;;;;;;;;;20.70;94.60;;;;;;5139364;27;19911;-79
2023/07/16 02:48:17;;;;;;;;;;;20.70;95.10;;;;;;5141370;27;19926;-79
2023/07/16 02:50:43;;;;;;;;;;;20.60;93.70;;;;;;5136967;27;19910;-78
2023/07/16 02:53:08;;;;;;;;;;;20.70;92.70;;;;;;5140205;27;19907;-79
2023/07/16 02:55:34;;;;;;;;;;;20.70;92.90;;;;;;5136931;27;19908;-77
2023/07/16 02:58:04;;;;;;;;;;;20.60;92.70;;;;;;5136552;27;19910;-76
2023/07/16 03:00:30;;;;;;;;;;;20.40;93.80;;;;;;5142246;27;19903;-78
2023/07/16 03:02:55;;;;;;;;;;;20.20;92.80;;;;;;5141299;27;19911;-78
2023/07/16 03:05:21;;;;;;;;;;;20.30;92.30;;;;;;5134495;27;20359;-76
2023/07/16 03:07:46;;;;;;;;;;;20.40;92.90;;;;;;5147463;27;19918;-78
2023/07/16 03:10:12;;;;;;;;;;;20.40;92.30;;;;;;5145453;27;19995;-79
2023/07/16 03:12:37;;;;;;;;;;;20.50;92.00;;;;;;5145871;27;19917;-79
2023/07/16 03:15:03;;;;;;;;;;;20.50;92.00;;;;;;5147262;27;19914;-77
2023/07/16 03:17:28;;;;;;;;;;;20.20;90.90;;;;;;5145680;27;19993;-79
2023/07/16 03:19:54;;;;;;;;;;;20.30;90.50;;;;;;5145260;27;19904;-79
2023/07/16 03:22:19;;;;;;;;;;;20.40;91.10;;;;;;5149366;27;19950;-79
2023/07/16 03:24:45;;;;;;;;;;;20.50;90.50;;;;;;5142714;27;19907;-79
2023/07/16 03:27:10;;;;;;;;;;;20.50;90.70;;;;;;5143732;27;19907;-78
2023/07/16 03:29:36;;;;;;;;;;;20.40;90.90;;;;;;5137245;27;19904;-78
2023/07/16 03:32:02;;;;;;;;;;;20.40;90.90;;;;;;5138440;27;19968;-79
2023/07/16 03:34:27;;;;;;;;;;;20.60;90.70;;;;;;5140587;27;19958;-78
2023/07/16 03:36:53;;;;;;;;;;;20.60;91.00;;;;;;5144234;27;19942;-78
2023/07/16 03:39:18;;;;;;;;;;;20.60;91.20;;;;;;5146108;27;19911;-78
2023/07/16 03:41:44;;;;;;;;;;;20.60;91.20;;;;;;5143273;27;19969;-79
2023/07/16 03:44:09;;;;;;;;;;;20.60;91.00;;;;;;5143261;27;20362;-75
2023/07/16 03:46:35;;;;;;;;;;;20.30;93.20;;;;;;5144419;27;19914;-79
2023/07/16 03:49:00;;;;;;;;;;;20.10;97.90;;;;;;5145093;27;19915;-79
2023/07/16 03:51:26;;;;;;;;;;;20.00;99.20;;;;;;5140908;27;20359;-78
2023/07/16 03:53:51;;;;;;;;;;;19.80;99.90;;;;;;5144228;27;19912;-79
2023/07/16 03:56:17;;;;;;;;;;;19.60;99.90;;;;;;5140971;27;19913;-76
2023/07/16 03:58:43;;;;;;;;;;;19.50;99.90;;;;;;5139787;27;19912;-75
2023/07/16 04:01:09;;;;;;;;;;;19.50;99.90;;;;;;5147529;27;20574;-79
2023/07/16 04:03:35;;;;;;;;;;;19.40;99.90;;;;;;5143444;27;20018;-78
2023/07/16 04:06:04;;;;;;;;;;;19.40;99.90;;;;;;5140955;27;20282;-78
2023/07/16 04:08:29;;;;;;;;;;;19.50;99.90;;;;;;5134621;27;19997;-79
2023/07/16 04:10:55;;;;;;;;;;;19.50;99.90;;;;;;5137261;27;20017;-80
2023/07/16 04:13:20;;;;;;;;;;;19.40;99.90;;;;;;5137411;27;19914;-79
2023/07/16 04:15:46;;;;;;;;;;;19.30;99.90;;;;;;5144805;27;19911;-80
2023/07/16 04:18:11;;;;;;;;;;;19.20;99.90;;;;;;5139398;27;20272;-80
2023/07/16 04:20:37;;;;;;;;;;;18.80;99.90;;;;;;5136549;27;19911;-80
2023/07/16 04:23:02;;;;;;;;;;;18.90;99.90;;;;;;5146176;27;19998;-81
2023/07/16 04:25:28;;;;;;;;;;;19.10;99.90;;;;;;5142218;27;19909;-80
2023/07/16 04:27:53;;;;;;;;;;;19.00;99.90;;;;;;5141559;27;19963;-81
2023/07/16 04:30:19;;;;;;;;;;;19.00;99.90;;;;;;5144426;27;20377;-82
2023/07/16 04:32:44;;;;;;;;;;;18.90;99.90;;;;;;5141175;27;19918;-81
2023/07/16 04:35:10;;;;;;;;;;;19.00;99.90;;;;;;5139029;27;19903;-81
2023/07/16 04:37:35;;;;;;;;;;;19.00;99.90;;;;;;5140382;27;20252;-79
2023/07/16 04:40:00;;;;;;;;;;;19.10;99.90;;;;;;5137468;27;19907;-82
2023/07/16 04:42:26;;;;;;;;;;;19.10;99.90;;;;;;5144901;27;19923;-82
2023/07/16 04:44:51;;;;;;;;;;;19.10;99.90;;;;;;5147002;27;19968;-82
2023/07/16 04:47:17;;;;;;;;;;;19.20;99.90;;;;;;5143315;27;19913;-82
2023/07/16 04:49:42;;;;;;;;;;;19.40;99.90;;;;;;5138807;27;20379;-82
2023/07/16 04:52:11;;;;;;;;;;;19.30;99.90;;;;;;5144757;27;19903;-81
2023/07/16 04:54:37;;;;;;;;;;;19.40;99.90;;;;;;5143436;27;19926;-81
2023/07/16 04:57:03;;;;;;;;;;;19.40;99.90;;;;;;5141432;27;19911;-83
2023/07/16 04:59:28;;;;;;;;;;;19.40;99.90;;;;;;5139304;27;20276;-83
2023/07/16 05:01:54;;;;;;;;;;;19.30;99.90;;;;;;5140078;27;20006;-83
2023/07/16 05:04:19;;;;;;;;;;;19.40;99.90;;;;;;5143207;27;19913;-80
2023/07/16 05:06:45;;;;;;;;;;;19.30;99.90;;;;;;5139347;27;20328;-80
2023/07/16 05:09:10;;;;;;;;;;;19.30;99.90;;;;;;5136610;27;20006;-78
2023/07/16 05:11:37;;;;;;;;;;;19.40;99.90;;;;;;5146178;27;20358;-77
2023/07/16 05:14:03;;;;;;;;;;;19.50;99.90;;;;;;5140031;27;19904;-77
2023/07/16 05:16:28;;;;;;;;;;;19.60;99.90;;;;;;5136201;27;19913;-81
2023/07/16 05:18:54;;;;;;;;;;;19.80;99.90;;;;;;5144717;27;19907;-81
2023/07/16 05:21:19;;;;;;;;;;;20.00;99.90;;;;;;5141928;27;19911;-81
2023/07/16 05:23:45;;;;;;;;;;;20.00;99.90;;;;;;5144474;27;19993;-82
2023/07/16 05:26:11;;;;;;;;;;;20.00;99.90;;;;;;5142086;27;19928;-81
2023/07/16 05:28:36;;;;;;;;;;;19.90;99.90;;;;;;5138363;27;19903;-80
2023/07/16 05:31:02;;;;;;;;;;;20.00;99.90;;;;;;5145366;27;20361;-80
2023/07/16 05:33:28;;;;;;;;;;;20.00;99.90;;;;;;5140364;27;19908;-82
2023/07/16 05:35:53;;;;;;;;;;;20.00;99.90;;;;;;5138967;27;19907;-76
2023/07/16 05:38:19;;;;;;;;;;;19.90;99.90;;;;;;5135512;27;19950;-79
2023/07/16 05:40:44;;;;;;;;;;;19.90;99.90;;;;;;5141938;27;19918;-79
2023/07/16 05:43:10;;;;;;;;;;;20.00;99.90;;;;;;5135167;27;19911;-81
2023/07/16 05:45:36;;;;;;;;;;;20.10;99.90;;;;;;5138097;27;19911;-80
2023/07/16 05:48:01;;;;;;;;;;;20.20;99.90;;;;;;5141052;27;19919;-80
2023/07/16 05:50:27;;;;;;;;;;;20.60;99.90;;;;;;5137584;27;20298;-85
2023/07/16 05:52:52;;;;;;;;;;;20.60;99.90;;;;;;5139638;27;19914;-84
2023/07/16 05:55:18;;;;;;;;;;;20.60;99.90;;;;;;5143400;27;20003;-82
2023/07/16 05:57:43;;;;;;;;;;;20.50;99.90;;;;;;5143475;27;20362;-82
2023/07/16 06:00:10;;;;;;;;;;;20.50;99.90;;;;;;5138423;27;20366;-84
2023/07/16 06:02:35;;;;;;;;;;;20.50;99.90;;;;;;5139886;27;19923;-85
2023/07/16 06:05:01;;;;;;;;;;;20.50;99.90;;;;;;5141309;27;19964;-84
2023/07/16 06:07:26;;;;;;;;;;;20.40;99.90;;;;;;5134495;27;20003;-82
2023/07/16 06:09:52;;;;;;;;;;;20.30;99.90;;;;;;5136169;27;19919;-81
2023/07/16 06:12:17;;;;;;;;;;;20.40;99.90;;;;;;5144009;27;19989;-84
2023/07/16 06:14:43;;;;;;;;;;;20.50;99.90;;;;;;5136656;27;19907;-82
2023/07/16 06:17:08;;;;;;;;;;;20.50;99.90;;;;;;5134296;27;20324;-80
2023/07/16 06:19:34;;;;;;;;;;;20.50;99.90;;;;;;5141109;27;19907;-80
2023/07/16 06:21:59;;;;;;;;;;;20.60;99.90;;;;;;5137998;27;19962;-82
2023/07/16 06:24:25;;;;;;;;;;;20.60;99.90;;;;;;5137488;27;19914;-82
2023/07/16 06:26:50;;;;;;;;;;;20.40;99.90;;;;;;5137675;27;19930;-81
2023/07/16 06:29:16;;;;;;;;;;;20.60;99.90;;;;;;5141185;27;19903;-83
2023/07/16 06:31:54;;;;;;;;;;;20.80;99.90;;;;;;5138394;27;19912;-84
2023/07/16 06:34:19;;;;;;;;;;;21.00;99.90;;;;;;5139943;27;19950;-84
2023/07/16 06:36:45;;;;;;;;;;;21.70;99.90;;;;;;5133179;27;19946;-85
2023/07/16 06:39:10;;;;;;;;;;;21.80;99.90;;;;;;5143138;27;19906;-86
2023/07/16 06:41:36;;;;;;;;;;;22.10;99.90;;;;;;5137651;27;19955;-83
2023/07/16 06:44:01;;;;;;;;;;;22.20;99.70;;;;;;5139413;27;19907;-84
2023/07/16 06:46:27;;;;;;;;;;;22.00;98.50;;;;;;5144206;27;19903;-83
2023/07/16 06:48:52;;;;;;;;;;;22.00;98.50;;;;;;5144825;27;19931;-83
2023/07/16 06:51:18;;;;;;;;;;;22.30;98.00;;;;;;5140975;27;19928;-85
2023/07/16 06:53:43;;;;;;;;;;;22.40;97.70;;;;;;5147556;27;20006;-81
2023/07/16 06:56:08;;;;;;;;;;;22.40;98.10;;;;;;5146290;27;19907;-81
2023/07/16 06:58:34;;;;;;;;;;;22.30;97.30;;;;;;5142552;27;19934;-83
2023/07/16 07:01:00;;;;;;;;;;;22.50;97.90;;;;;;5140080;27;20017;-82
2023/07/16 07:03:25;;;;;;;;;;;22.40;96.50;;;;;;5143509;27;19907;-83
2023/07/16 07:05:51;;;;;;;;;;;22.40;96.80;;;;;;5148483;27;19907;-83
2023/07/16 07:08:16;;;;;;;;;;;22.30;97.20;;;;;;5144487;27;20347;-83
2023/07/16 07:10:42;;;;;;;;;;;22.00;98.40;;;;;;5136353;27;19912;-85
2023/07/16 07:13:07;;;;;;;;;;;22.00;98.10;;;;;;5149596;27;19907;-85
2023/07/16 07:15:33;;;;;;;;;;;22.10;98.70;;;;;;5145337;27;19931;-78
2023/07/16 07:17:58;;;;;;;;;;;22.30;97.40;;;;;;5136568;27;19907;-82
2023/07/16 07:20:24;;;;;;;;;;;22.70;98.20;;;;;;5142506;27;20035;-85
2023/07/16 07:22:49;;;;;;;;;;;22.60;96.30;;;;;;5142200;27;20032;-82
2023/07/16 07:25:15;;;;;;;;;;;23.00;95.80;;;;;;5143468;27;19903;-83
2023/07/16 07:27:40;;;;;;;;;;;23.50;94.90;;;;;;5136718;27;20289;-84
2023/07/16 07:30:06;;;;;;;;;;;23.40;94.50;;;;;;5140692;27;19914;-86
2023/07/16 07:32:32;;;;;;;;;;;23.40;92.60;;;;;;5144456;27;19915;-86
2023/07/16 07:34:58;;;;;;;;;;;22.80;92.20;;;;;;5140264;27;19903;-86
2023/07/16 07:37:23;;;;;;;;;;;22.90;93.60;;;;;;5142115;27;19913;-86
2023/07/16 07:39:51;;;;;;;;;;;22.80;93.10;;;;;;5150221;27;19907;-85
2023/07/16 07:42:17;;;;;;;;;;;22.80;92.70;;;;;;5142151;27;19911;-85
2023/07/16 07:44:42;;;;;;;;;;;23.20;91.10;;;;;;5139053;27;19926;-84
2023/07/16 07:47:08;;;;;;;;;;;23.10;92.30;;;;;;5144295;27;19959;-86
2023/07/16 07:49:34;;;;;;;;;;;22.90;91.80;;;;;;5144264;27;19964;-84
2023/07/16 07:52:00;;;;;;;;;;;23.20;91.80;;;;;;5145375;27;19907;-86
2023/07/16 07:54:25;;;;;;;;;;;23.40;90.40;;;;;;5142510;27;19910;-88
2023/07/16 07:56:51;;;;;;;;;;;23.80;88.60;;;;;;5141672;27;19975;-87
2023/07/16 07:59:16;;;;;;;;;;;24.10;87.80;;;;;;5145324;27;19906;-85
2023/07/16 08:01:42;;;;;;;;;;;24.10;86.70;;;;;;5146611;27;19919;-83
2023/07/16 08:04:07;;;;;;;;;;;25.00;87.70;;;;;;5146795;27;19915;-83
2023/07/16 08:06:33;;;;;;;;;;;24.60;86.00;;;;;;5149728;27;19930;-86
2023/07/16 08:08:58;;;;;;;;;;;23.80;85.60;;;;;;5148615;27;20319;-88
2023/07/16 08:11:24;;;;;;;;;;;23.70;86.00;;;;;;5143554;27;19906;-84
2023/07/16 08:13:49;;;;;;;;;;;23.50;85.70;;;;;;5146530;27;19907;-84
2023/07/16 08:16:15;;;;;;;;;;;23.80;85.10;;;;;;5146794;27;19911;-83
2023/07/16 08:18:40;;;;;;;;;;;24.00;84.40;;;;;;5139743;27;19903;-82
2023/07/16 08:21:06;;;;;;;;;;;24.10;83.30;;;;;;5147878;27;20472;-83
2023/07/16 08:23:31;;;;;;;;;;;23.30;82.80;;;;;;5149442;27;20490;-86
2023/07/16 08:25:57;;;;;;;;;;;23.50;84.80;;;;;;5139624;27;19913;-88
2023/07/16 08:28:22;;;;;;;;;;;23.20;82.70;;;;;;5136217;27;19918;-85
2023/07/16 08:30:48;;;;;;;;;;;22.80;86.20;;;;;;5136272;27;20272;-84
2023/07/16 08:33:14;;;;;;;;;;;23.60;87.10;;;;;;5144773;27;19903;-84
2023/07/16 08:35:40;;;;;;;;;;;23.80;82.80;;;;;;5141487;27;19957;-84
2023/07/16 08:38:09;;;;;;;;;;;23.80;82.50;;;;;;5139423;27;20375;-86
2023/07/16 08:40:35;;;;;;;;;;;23.90;82.00;;;;;;5142702;27;19907;-85
2023/07/16 08:43:01;;;;;;;;;;;23.90;80.70;;;;;;5142781;27;20002;-84
2023/07/16 08:45:28;;;;;;;;;;;24.20;80.80;;;;;;5139953;27;20305;-86
2023/07/16 08:47:54;;;;;;;;;;;24.70;77.20;;;;;;5140105;27;20738;-87
2023/07/16 08:50:21;;;;;;;;;;;25.50;77.80;;;;;;5145039;27;19960;-87
2023/07/16 08:52:46;;;;;;;;;;;25.30;74.20;;;;;;5136709;27;20388;-86
2023/07/16 08:55:12;;;;;;;;;;;25.60;74.70;;;;;;5136918;27;19918;-85
2023/07/16 08:57:38;;;;;;;;;;;26.20;76.30;;;;;;5145357;27;19960;-84
2023/07/16 09:00:07;;;;;;;;;;;26.70;72.00;;;;;;5138532;27;19997;-86
2023/07/16 09:02:32;;;;;;;;;;;27.60;67.40;;;;;;5137381;27;19919;-82
2023/07/16 09:04:58;;;;;;;;;;;29.40;66.50;;;;;;5139457;27;20282;-82
2023/07/16 09:07:24;;;;;;;;;;;29.30;63.50;;;;;;5140290;27;19903;-81
2023/07/16 09:09:58;;;;;;;;;;;31.60;61.90;;;;;;5139678;27;19907;-82
2023/07/16 09:12:24;;;;;;;;;;;33.50;56.00;;;;;;5135171;27;19903;-83
2023/07/16 09:14:49;;;;;;;;;;;35.50;52.90;;;;;;5136837;27;19948;-84
2023/07/16 09:17:19;;;;;;;;;;;36.10;51.80;;;;;;5147409;27;20010;-81
2023/07/16 09:19:45;;;;;;;;;;;37.20;50.40;;;;;;5139107;27;19953;-82
2023/07/16 09:22:11;;;;;;;;;;;36.90;49.00;;;;;;5133882;27;19922;-81
2023/07/16 09:24:36;;;;;;;;;;;35.90;49.30;;;;;;5143741;27;19998;-78
2023/07/16 09:27:02;;;;;;;;;;;36.20;49.60;;;;;;5144182;27;19928;-82
2023/07/16 09:29:27;;;;;;;;;;;37.60;48.60;;;;;;5142868;27;19957;-82
2023/07/16 09:31:53;;;;;;;;;;;36.90;47.70;;;;;;5136737;27;19907;-82
2023/07/16 09:34:19;;;;;;;;;;;37.30;47.00;;;;;;5143039;27;19957;-81
2023/07/16 09:36:46;;;;;;;;;;;38.00;47.80;;;;;;5140239;27;19930;-81
2023/07/16 09:39:12;;;;;;;;;;;37.80;45.80;;;;;;5141523;27;19914;-82
2023/07/16 09:41:40;;;;;;;;;;;37.30;45.50;;;;;;5135604;27;20306;-79
2023/07/16 09:44:05;;;;;;;;;;;37.90;47.80;;;;;;5142618;27;19914;-80
2023/07/16 09:46:31;;;;;;;;;;;39.20;45.10;;;;;;5141487;27;19907;-80
2023/07/16 09:48:56;;;;;;;;;;;38.00;46.60;;;;;;5140931;27;20024;-80
2023/07/16 09:51:22;;;;;;;;;;;38.50;46.70;;;;;;5137926;27;20029;-79
2023/07/16 09:53:52;;;;;;;;;;;39.00;46.40;;;;;;5143869;27;19919;-81
2023/07/16 09:56:18;;;;;;;;;;;40.30;45.30;;;;;;5136832;27;19914;-79
2023/07/16 09:58:43;;;;;;;;;;;40.10;46.00;;;;;;5142594;27;19952;-79
2023/07/16 10:01:09;;;;;;;;;;;40.00;45.50;;;;;;5136558;27;19911;-80
2023/07/16 10:03:34;;;;;;;;;;;38.40;43.70;;;;;;5145710;27;20547;-78
2023/07/16 10:06:07;;;;;;;;;;;39.70;45.30;;;;;;5140130;27;19907;-80
2023/07/16 10:08:34;;;;;;;;;;;40.10;43.70;;;;;;5144132;27;19945;-80
2023/07/16 10:11:00;;;;;;;;;;;39.80;45.20;;;;;;5142969;27;19907;-79
2023/07/16 10:13:26;;;;;;;;;;;40.70;45.70;;;;;;5144820;27;19907;-80
2023/07/16 10:15:52;;;;;;;;;;;39.30;46.90;;;;;;5131815;27;20375;-79
2023/07/16 10:18:27;;;;;;;;;;;41.00;44.10;;;;;;5136956;27;20669;-80
2023/07/16 10:20:53;;;;;;;;;;;40.40;43.60;;;;;;5142638;27;20370;-80
2023/07/16 10:23:19;;;;;;;;;;;39.30;45.80;;;;;;5140439;27;19907;-80
2023/07/16 10:26:05;;;;;;;;;;;38.10;46.10;;;;;;5139182;27;19903;-81
2023/07/16 10:28:31;;;;;;;;;;;37.60;46.80;;;;;;5134788;27;20013;-79
2023/07/16 10:30:57;;;;;;;;;;;35.80;51.00;;;;;;5141292;27;20986;-78
2023/07/16 10:33:23;;;;;;;;;;;34.10;52.50;;;;;;5137567;27;19987;-80
2023/07/16 10:35:48;;;;;;;;;;;33.10;52.60;;;;;;5141874;27;19906;-80
2023/07/16 10:38:13;;;;;;;;;;;32.30;54.20;;;;;;5135687;27;19907;-78
2023/07/16 10:40:40;;;;;;;;;;;31.30;54.50;;;;;;5139097;27;19946;-80
2023/07/16 10:43:05;;;;;;;;;;;30.00;55.70;;;;;;5142587;27;19908;-80
2023/07/16 10:45:31;;;;;;;;;;;30.10;58.00;;;;;;5139652;27;19959;-79
2023/07/16 10:47:56;;;;;;;;;;;29.20;55.20;;;;;;5138389;27;20243;-80
2023/07/16 10:50:22;;;;;;;;;;;28.90;57.70;;;;;;5137398;27;20389;-79
2023/07/16 10:52:50;;;;;;;;;;;29.30;59.00;;;;;;5144797;27;19910;-80
2023/07/16 10:55:15;;;;;;;;;;;29.40;60.40;;;;;;5147003;27;19903;-79
2023/07/16 10:57:41;;;;;;;;;;;29.60;62.00;;;;;;5143191;27;19907;-80
2023/07/16 11:00:12;;;;;;;;;;;29.60;61.20;;;;;;5138632;27;19903;-78
2023/07/16 11:02:40;;;;;;;;;;;29.90;59.30;;;;;;5140985;27;19911;-79
2023/07/16 11:05:05;;;;;;;;;;;29.90;61.90;;;;;;5146682;27;20297;-78
2023/07/16 11:07:31;;;;;;;;;;;29.20;61.40;;;;;;5140059;27;19914;-78
2023/07/16 11:09:57;;;;;;;;;;;29.30;60.10;;;;;;5136711;27;20130;-78
2023/07/16 11:12:23;;;;;;;;;;;29.40;64.70;;;;;;5146596;27;20378;-80
2023/07/16 11:14:50;;;;;;;;;;;29.10;64.10;;;;;;5138319;27;19980;-79
2023/07/16 11:17:16;;;;;;;;;;;28.50;61.00;;;;;;5139458;27;19908;-80
2023/07/16 11:19:45;;;;;;;;;;;28.80;63.50;;;;;;5145100;27;20156;-79
2023/07/16 11:22:11;;;;;;;;;;;28.90;63.00;;;;;;5137899;27;19934;-79
2023/07/16 11:24:38;;;;;;;;;;;29.30;65.00;;;;;;5136347;27;20286;-80
2023/07/16 11:27:03;;;;;;;;;;;28.80;61.10;;;;;;5141613;27;20046;-79
2023/07/16 11:29:36;;;;;;;;;;;29.10;64.20;;;;;;5142084;27;20005;-79
2023/07/16 11:32:01;;;;;;;;;;;29.20;64.70;;;;;;5137008;27;19908;-80
2023/07/16 11:34:27;;;;;;;;;;;29.20;63.40;;;;;;5144752;27;20295;-79
2023/07/16 11:36:52;;;;;;;;;;;29.00;64.30;;;;;;5144119;27;19903;-79
2023/07/16 11:39:20;;;;;;;;;;;29.40;66.20;;;;;;5136191;27;19904;-79
2023/07/16 11:41:58;;;;;;;;;;;29.60;61.60;;;;;;5147990;27;20332;-78
2023/07/16 11:44:23;;;;;;;;;;;29.30;63.90;;;;;;5143703;27;19993;-79
2023/07/16 11:46:49;;;;;;;;;;;29.20;61.90;;;;;;5147211;27;20063;-79
2023/07/16 11:49:15;;;;;;;;;;;29.00;65.50;;;;;;5142985;27;20378;-79
2023/07/16 11:51:43;;;;;;;;;;;29.20;65.00;;;;;;5141736;27;19972;-78
2023/07/16 11:54:10;;;;;;;;;;;29.20;65.40;;;;;;5147631;27;20010;-78
2023/07/16 11:56:35;;;;;;;;;;;28.90;64.40;;;;;;5142136;27;19979;-78
2023/07/16 11:59:01;;;;;;;;;;;29.00;67.60;;;;;;5144144;27;19910;-79
2023/07/16 12:01:27;;;;;;;;;;;28.80;64.20;;;;;;5137495;27;20005;-79
2023/07/16 12:03:52;;;;;;;;;;;29.10;66.20;;;;;;5145184;27;20034;-79
2023/07/16 12:06:18;;;;;;;;;;;29.00;65.10;;;;;;5141570;27;19956;-79
2023/07/16 12:08:43;;;;;;;;;;;29.00;64.50;;;;;;5143689;27;20276;-79
2023/07/16 12:11:09;;;;;;;;;;;28.90;66.50;;;;;;5146479;27;19909;-78
2023/07/16 12:13:34;;;;;;;;;;;28.90;63.70;;;;;;5142992;27;19911;-79
2023/07/16 12:16:00;;;;;;;;;;;28.50;66.60;;;;;;5140484;27;19961;-79
2023/07/16 12:18:26;;;;;;;;;;;28.50;65.10;;;;;;5140666;27;19914;-79
2023/07/16 12:20:52;;;;;;;;;;;28.20;64.50;;;;;;5142143;27;20368;-79
2023/07/16 12:23:17;;;;;;;;;;;28.40;67.60;;;;;;5143262;27;19917;-79
2023/07/16 12:25:43;;;;;;;;;;;29.00;66.30;;;;;;5137932;27;19952;-79
2023/07/16 12:28:09;;;;;;;;;;;29.00;68.50;;;;;;5140687;27;19950;-79
2023/07/16 12:30:34;;;;;;;;;;;29.00;65.30;;;;;;5136004;27;19972;-79
2023/07/16 12:33:00;;;;;;;;;;;28.90;64.00;;;;;;5141752;27;20005;-79
2023/07/16 12:35:25;;;;;;;;;;;29.00;66.00;;;;;;5140149;27;20366;-79
2023/07/16 12:37:51;;;;;;;;;;;29.00;65.00;;;;;;5138277;27;19903;-79
2023/07/16 12:40:17;;;;;;;;;;;28.70;64.00;;;;;;5140902;27;20373;-78
2023/07/16 12:42:42;;;;;;;;;;;28.60;65.10;;;;;;5137690;27;19919;-78
2023/07/16 12:45:08;;;;;;;;;;;28.80;65.10;;;;;;5144548;27;19985;-78
2023/07/16 12:47:33;;;;;;;;;;;28.60;65.50;;;;;;5145777;27;19911;-78
2023/07/16 12:49:59;;;;;;;;;;;28.80;65.10;;;;;;5141409;27;19907;-78
2023/07/16 12:52:24;;;;;;;;;;;28.60;64.60;;;;;;5138679;27;20757;-78
2023/07/16 12:54:50;;;;;;;;;;;28.70;64.50;;;;;;5138603;27;19911;-78
2023/07/16 12:57:16;;;;;;;;;;;28.50;64.20;;;;;;5143817;27;20674;-78
2023/07/16 12:59:42;;;;;;;;;;;28.60;63.20;;;;;;5138084;27;19914;-78
2023/07/16 13:02:07;;;;;;;;;;;28.60;62.90;;;;;;5144202;27;19915;-79
2023/07/16 13:04:33;;;;;;;;;;;28.90;65.20;;;;;;5141057;27;19907;-79
2023/07/16 13:06:58;;;;;;;;;;;28.70;65.00;;;;;;5136768;27;19907;-78
2023/07/16 13:09:24;;;;;;;;;;;28.80;66.20;;;;;;5136913;27;20019;-79
2023/07/16 13:11:50;;;;;;;;;;;28.70;64.80;;;;;;5140442;27;19911;-79
2023/07/16 13:14:16;;;;;;;;;;;28.90;63.90;;;;;;5139673;27;19913;-79
2023/07/16 13:16:42;;;;;;;;;;;28.70;64.10;;;;;;5138562;27;19929;-78
2023/07/16 13:19:07;;;;;;;;;;;28.70;64.70;;;;;;5141170;27;20377;-78
2023/07/16 13:21:33;;;;;;;;;;;28.90;62.20;;;;;;5138260;27;19968;-78
2023/07/16 13:23:58;;;;;;;;;;;29.00;64.30;;;;;;5132434;27;19992;-78
2023/07/16 13:26:24;;;;;;;;;;;29.10;63.60;;;;;;5142153;27;19903;-78
2023/07/16 13:28:50;;;;;;;;;;;28.90;64.20;;;;;;5143038;27;20332;-78
2023/07/16 13:31:15;;;;;;;;;;;28.90;63.30;;;;;;5138279;27;19907;-79
2023/07/16 13:33:41;;;;;;;;;;;28.90;62.70;;;;;;5143549;27;20289;-79
2023/07/16 13:36:06;;;;;;;;;;;28.50;67.80;;;;;;5146365;27;19907;-78
2023/07/16 13:38:32;;;;;;;;;;;28.70;64.70;;;;;;5138022;27;19965;-79
2023/07/16 13:40:57;;;;;;;;;;;28.90;65.50;;;;;;5143214;27;19967;-78
2023/07/16 13:43:23;;;;;;;;;;;29.00;66.00;;;;;;5136881;27;19918;-78
2023/07/16 13:45:48;;;;;;;;;;;29.00;65.50;;;;;;5137339;27;19907;-79
2023/07/16 13:48:14;;;;;;;;;;;29.00;64.00;;;;;;5144938;27;20287;-78
2023/07/16 13:50:39;;;;;;;;;;;29.00;64.90;;;;;;5138044;27;19918;-78
2023/07/16 13:53:05;;;;;;;;;;;28.90;63.90;;;;;;5145699;27;19907;-79
2023/07/16 13:55:30;;;;;;;;;;;28.70;64.20;;;;;;5137555;27;19911;-78
2023/07/16 13:57:56;;;;;;;;;;;28.70;62.50;;;;;;5131727;27;19911;-79
2023/07/16 14:00:21;;;;;;;;;;;28.50;62.80;;;;;;5142103;27;19952;-78
2023/07/16 14:02:47;;;;;;;;;;;28.50;63.60;;;;;;5141159;27;19918;-78
2023/07/16 14:05:12;;;;;;;;;;;28.60;63.90;;;;;;5132888;27;19914;-78
2023/07/16 14:07:38;;;;;;;;;;;28.50;63.40;;;;;;5139642;27;19951;-78
2023/07/16 14:10:04;;;;;;;;;;;28.30;63.80;;;;;;5138019;27;19985;-78